This is the latest recevied weather packets stored in our database for station/object VA2EYZ-13. If no packets are shown the sender has not sent any weather packets the latest 10 day(s).
| Time | Temp. | Humidity | Pressure | Rain* | Wind** | Luminosity | Snow |
|---|---|---|---|---|---|---|---|
| 1777653957 | 10° C | 26% | 1012 hPa | - | - | - | - |
| 1777653379 | 10° C | 26% | 1011 hPa | - | - | - | - |
| 1777652145 | 10° C | 26% | 1012 hPa | - | - | - | - |
| 1777651338 | 10° C | 26% | 1012.4 hPa | - | - | - | - |
| 1777640748 | 8.33° C | 32% | 1012 hPa | - | - | - | - |
| 1777640103 | 7.78° C | 33% | 1012.5 hPa | - | - | - | - |
| 1777636876 | 7.22° C | 38% | 1012.8 hPa | - | - | - | - |
| 1777635914 | 7.22° C | 38% | 1012 hPa | - | - | - | - |
| 1777633549 | 7.22° C | 38% | 1012 hPa | - | - | - | - |
| 1777632494 | 6.67° C | 41% | 1012 hPa | - | - | - | - |
| 1777630217 | 6.67° C | 41% | 1011.9 hPa | - | - | - | - |
| 1777629836 | 6.67° C | 41% | 1011 hPa | - | - | - | - |
| 1777626988 | 7.22° C | 38% | 1011.6 hPa | - | - | - | - |
| 1777626236 | 7.22° C | 38% | 1011.4 hPa | - | - | - | - |
| 1777623862 | 7.78° C | 38% | 1011.4 hPa | - | - | - | - |
| 1777622635 | 7.78° C | 38% | 1011 hPa | - | - | - | - |
| 1777621514 | 7.22° C | 39% | 1011 hPa | - | - | - | - |
| 1777620239 | 7.22° C | 39% | 1011.2 hPa | - | - | - | - |
| 1777619031 | 7.22° C | 39% | 1011 hPa | - | - | - | - |
| 1777617041 | 7.22° C | 41% | 1011 hPa | - | - | - | - |
| 1777615432 | 7.22° C | 41% | 1010 hPa | - | - | - | - |
| 1777613863 | 8.33° C | 36% | 1010.8 hPa | - | - | - | - |
| 1777610757 | 8.33° C | 36% | 1010.9 hPa | - | - | - | - |
| 1777608343 | 8.33° C | 36% | 1010.8 hPa | - | - | - | - |
| 1777607337 | 8.89° C | 34% | 1010.8 hPa | - | - | - | - |
* Rain since midnight (hover to see other rain measurements)
** Current wind speed in m/s (hover to see current wind gust speed)